Time;durP1;ratioP1;P1;durP2;ratioP2;P2;SDS_P1;SDS_P2;PMS_P1;PMS_P2;Temp;Humidity;BMP_temperature;BMP_pressure;BME280_temperature;BME280_humidity;BME280_pressure;Samples;Min_cycle;Max_cycle;Signal;HPM_P1;HPM_P2
2023/05/06 00:01:52;;;;;;;19.80;8.82;;;;;15.20;96362.00;;;;8256444;28;20214;-70
2023/05/06 00:05:55;;;;;;;14.43;8.63;;;;;15.20;96365.00;;;;8257508;28;20222;-69
2023/05/06 00:10:00;;;;;;;15.65;9.02;;;;;15.10;96347.00;;;;8254771;28;20259;-68
2023/05/06 00:14:04;;;;;;;17.13;8.55;;;;;15.10;96344.00;;;;8257258;28;20281;-67
2023/05/06 00:18:08;;;;;;;17.00;9.15;;;;;15.00;96333.00;;;;8256919;28;20227;-69
2023/05/06 00:22:12;;;;;;;17.23;9.40;;;;;15.00;96336.00;;;;8256748;28;20241;-68
2023/05/06 00:26:18;;;;;;;21.83;10.55;;;;;15.00;96332.00;;;;8255582;28;20194;-69
2023/05/06 00:30:24;;;;;;;22.35;10.80;;;;;15.00;96333.00;;;;8239294;28;21937;-69
2023/05/06 00:34:28;;;;;;;20.80;10.52;;;;;15.00;96321.00;;;;8257803;28;20214;-69
2023/05/06 00:38:33;;;;;;;16.27;9.50;;;;;14.90;96330.00;;;;8256534;28;20233;-68
2023/05/06 00:42:36;;;;;;;17.60;9.90;;;;;14.90;96320.00;;;;8253713;28;20210;-69
2023/05/06 00:46:42;;;;;;;21.00;10.38;;;;;14.80;96322.00;;;;8247040;28;20545;-71
2023/05/06 00:50:51;;;;;;;22.40;10.50;;;;;14.80;96324.00;;;;8266143;28;20220;-69
2023/05/06 00:54:54;;;;;;;19.27;9.70;;;;;14.80;96311.00;;;;8255808;28;20199;-68
2023/05/06 00:59:01;;;;;;;22.92;10.35;;;;;14.80;96313.00;;;;8252766;28;20241;-69
2023/05/06 01:03:10;;;;;;;16.83;9.77;;;;;14.80;96325.00;;;;8267756;28;20292;-68
2023/05/06 01:07:24;;;;;;;19.60;9.85;;;;;14.80;96318.00;;;;8264332;28;20194;-68
2023/05/06 01:11:36;;;;;;;21.45;10.63;;;;;14.70;96315.00;;;;8268518;28;20198;-68
2023/05/06 01:15:46;;;;;;;20.67;10.45;;;;;14.70;96321.00;;;;8264553;28;21031;-68
2023/05/06 01:19:52;;;;;;;23.67;11.13;;;;;14.70;96316.00;;;;8269613;28;20894;-68
2023/05/06 01:23:59;;;;;;;24.60;10.93;;;;;14.70;96309.00;;;;8269965;28;20199;-68
2023/05/06 01:28:02;;;;;;;21.92;12.25;;;;;14.70;96313.00;;;;8269831;28;20211;-69
2023/05/06 01:32:18;;;;;;;25.58;11.90;;;;;14.70;96312.00;;;;8264630;28;20202;-69
2023/05/06 01:36:39;;;;;;;21.90;11.20;;;;;14.60;96311.00;;;;8254366;28;20273;-70
2023/05/06 01:40:47;;;;;;;23.50;10.88;;;;;14.60;96318.00;;;;8275609;28;20770;-69
2023/05/06 01:44:54;;;;;;;28.63;12.30;;;;;14.60;96314.00;;;;8255872;28;20203;-69
2023/05/06 01:49:02;;;;;;;24.48;12.02;;;;;14.60;96315.00;;;;8267229;28;20198;-69
2023/05/06 01:53:05;;;;;;;32.03;12.38;;;;;14.50;96316.00;;;;8271010;28;20206;-67
2023/05/06 01:57:11;;;;;;;29.10;12.48;;;;;14.50;96312.00;;;;8263075;28;20206;-68
2023/05/06 02:01:14;;;;;;;31.23;12.88;;;;;14.50;96305.00;;;;8270880;28;20203;-68
2023/05/06 02:05:21;;;;;;;31.42;12.23;;;;;14.50;96308.00;;;;8271844;28;20251;-68
2023/05/06 02:09:24;;;;;;;23.80;12.63;;;;;14.50;96308.00;;;;8255981;28;20253;-68
2023/05/06 02:13:33;;;;;;;28.30;13.00;;;;;14.50;96310.00;;;;8276771;28;20207;-67
2023/05/06 02:17:37;;;;;;;34.47;14.55;;;;;14.40;96308.00;;;;8254176;28;20776;-67
2023/05/06 02:21:42;;;;;;;32.53;13.52;;;;;14.40;96305.00;;;;8251864;28;20301;-69
2023/05/06 02:25:45;;;;;;;29.17;14.13;;;;;14.40;96303.00;;;;8253040;28;20210;-68
2023/05/06 02:29:55;;;;;;;34.78;14.20;;;;;14.40;96306.00;;;;8253508;28;20210;-67
2023/05/06 02:33:58;;;;;;;36.20;15.40;;;;;14.40;96306.00;;;;8257342;28;20202;-68
2023/05/06 02:38:01;;;;;;;35.67;15.52;;;;;14.40;96297.00;;;;8254516;28;20341;-68
2023/05/06 02:42:05;;;;;;;33.83;14.63;;;;;14.40;96290.00;;;;8251132;28;20205;-68
2023/05/06 02:46:10;;;;;;;33.45;14.65;;;;;14.40;96291.00;;;;8255387;28;20202;-68
2023/05/06 02:50:15;;;;;;;39.25;15.48;;;;;14.40;96292.00;;;;8252838;28;20272;-68
2023/05/06 02:54:18;;;;;;;40.38;15.50;;;;;14.30;96291.00;;;;8258108;28;20210;-67
2023/05/06 02:58:26;;;;;;;39.47;16.13;;;;;14.30;96298.00;;;;8250912;28;20228;-68
2023/05/06 03:02:32;;;;;;;44.08;17.77;;;;;14.30;96286.00;;;;8274676;22;20231;-68
2023/05/06 03:06:38;;;;;;;37.90;15.40;;;;;14.30;96291.00;;;;8221966;28;20220;-69
2023/05/06 03:10:41;;;;;;;36.63;15.73;;;;;14.30;96285.00;;;;8221872;28;20236;-68
2023/05/06 03:14:44;;;;;;;47.83;17.63;;;;;14.30;96287.00;;;;8222003;28;20218;-69
2023/05/06 03:18:49;;;;;;;34.63;15.80;;;;;14.30;96282.00;;;;8224396;28;20226;-69
2023/05/06 03:22:55;;;;;;;43.15;16.58;;;;;14.30;96283.00;;;;8220873;28;20207;-69
2023/05/06 03:26:58;;;;;;;38.08;16.77;;;;;14.30;96286.00;;;;8221993;28;20767;-68
2023/05/06 03:31:01;;;;;;;42.03;17.10;;;;;14.30;96281.00;;;;8220583;28;20202;-69
2023/05/06 03:35:10;;;;;;;40.30;16.80;;;;;14.40;96286.00;;;;8221165;28;20206;-68
2023/05/06 03:39:18;;;;;;;38.30;16.67;;;;;14.40;96287.00;;;;8214657;28;20256;-70
2023/05/06 03:43:21;;;;;;;37.10;16.25;;;;;14.40;96279.00;;;;8212031;28;20689;-69
2023/05/06 03:47:29;;;;;;;40.53;16.60;;;;;14.40;96274.00;;;;8227085;28;20232;-68
2023/05/06 03:51:36;;;;;;;45.67;16.95;;;;;14.40;96293.00;;;;8251495;28;20230;-68
2023/05/06 03:55:42;;;;;;;37.63;16.45;;;;;14.40;96288.00;;;;8248432;28;20304;-68
2023/05/06 03:59:51;;;;;;;39.08;16.65;;;;;14.40;96291.00;;;;8248750;28;20612;-68
2023/05/06 04:03:57;;;;;;;38.50;16.05;;;;;14.40;96289.00;;;;8251703;28;20291;-69
2023/05/06 04:08:05;;;;;;;31.77;14.55;;;;;14.40;96298.00;;;;8251130;28;20256;-69
2023/05/06 04:12:08;;;;;;;33.67;14.85;;;;;14.40;96296.00;;;;8250994;28;20219;-69
2023/05/06 04:16:11;;;;;;;40.25;15.90;;;;;14.40;96302.00;;;;8247814;28;20199;-68
2023/05/06 04:20:15;;;;;;;36.22;14.68;;;;;14.40;96301.00;;;;8249245;28;20226;-68
2023/05/06 04:24:20;;;;;;;38.42;15.05;;;;;14.40;96305.00;;;;8252322;28;20203;-69
2023/05/06 04:28:23;;;;;;;35.38;15.85;;;;;14.50;96316.00;;;;8257376;28;20195;-68
2023/05/06 04:32:26;;;;;;;37.50;16.13;;;;;14.50;96321.00;;;;8257224;28;20782;-69
2023/05/06 04:36:30;;;;;;;39.83;16.63;;;;;14.50;96319.00;;;;8256397;28;20217;-70
2023/05/06 04:40:35;;;;;;;38.15;16.50;;;;;14.50;96324.00;;;;8254131;28;20234;-69
2023/05/06 04:44:40;;;;;;;38.22;16.75;;;;;14.50;96330.00;;;;8257220;28;20233;-68
2023/05/06 04:48:43;;;;;;;41.97;16.63;;;;;14.50;96329.00;;;;8254610;28;20560;-68
2023/05/06 04:52:46;;;;;;;45.85;17.98;;;;;14.60;96337.00;;;;8251652;28;20516;-69
2023/05/06 04:56:55;;;;;;;38.85;16.75;;;;;14.70;96334.00;;;;8256146;28;20195;-68
2023/05/06 05:01:03;;;;;;;36.13;17.05;;;;;14.70;96330.00;;;;8256746;28;20309;-68
2023/05/06 05:05:10;;;;;;;37.75;17.85;;;;;14.80;96330.00;;;;8254553;28;20651;-70
2023/05/06 05:09:13;;;;;;;39.90;16.77;;;;;14.90;96339.00;;;;8253044;28;20207;-69
2023/05/06 05:13:26;;;;;;;43.63;17.17;;;;;15.10;96338.00;;;;8257268;28;20256;-70
2023/05/06 05:17:29;;;;;;;39.08;17.50;;;;;15.30;96342.00;;;;8254054;28;20203;-70
2023/05/06 05:21:32;;;;;;;38.63;17.77;;;;;15.40;96345.00;;;;8256104;28;20238;-69
2023/05/06 05:25:38;;;;;;;43.80;18.33;;;;;15.60;96336.00;;;;8253418;28;20206;-70
2023/05/06 05:29:48;;;;;;;45.75;18.83;;;;;15.70;96344.00;;;;8250158;28;20241;-69
2023/05/06 05:33:52;;;;;;;46.63;19.35;;;;;15.60;96345.00;;;;8255230;28;20253;-70
2023/05/06 05:37:55;;;;;;;52.67;20.15;;;;;15.50;96348.00;;;;8251157;28;20195;-70
2023/05/06 05:41:58;;;;;;;44.00;20.30;;;;;15.60;96336.00;;;;8252887;28;20565;-71
2023/05/06 05:46:04;;;;;;;44.60;20.55;;;;;15.60;96340.00;;;;8250638;28;20223;-71
2023/05/06 05:50:13;;;;;;;43.78;19.98;;;;;15.70;96331.00;;;;8252483;28;20210;-69
2023/05/06 05:54:20;;;;;;;46.88;20.15;;;;;15.80;96341.00;;;;8252893;28;20217;-70
2023/05/06 05:58:25;;;;;;;39.88;19.85;;;;;16.20;96347.00;;;;8252966;28;20246;-68
2023/05/06 06:02:29;;;;;;;39.03;18.50;;;;;16.30;96337.00;;;;8254579;28;20230;-69
2023/05/06 06:06:35;;;;;;;33.38;18.15;;;;;16.40;96338.00;;;;8282605;28;20213;-68
2023/05/06 06:10:38;;;;;;;33.47;18.17;;;;;16.60;96354.00;;;;8288094;28;20445;-70
2023/05/06 06:14:46;;;;;;;29.60;16.88;;;;;16.70;96353.00;;;;8280088;28;20261;-69
2023/05/06 06:18:54;;;;;;;27.13;16.83;;;;;16.50;96352.00;;;;8276641;28;20248;-69
2023/05/06 06:23:00;;;;;;;28.10;16.63;;;;;16.40;96347.00;;;;8277132;28;20252;-69
2023/05/06 06:27:03;;;;;;;30.10;16.70;;;;;16.40;96361.00;;;;8274476;28;20225;-70
2023/05/06 06:31:11;;;;;;;30.02;16.00;;;;;16.50;96363.00;;;;8272002;28;20206;-70
2023/05/06 06:35:16;;;;;;;25.70;16.55;;;;;16.50;96369.00;;;;8277714;28;20205;-69
2023/05/06 06:39:19;;;;;;;27.70;15.15;;;;;16.50;96378.00;;;;8286417;28;20253;-70
2023/05/06 06:43:23;;;;;;;27.23;14.55;;;;;16.60;96383.00;;;;8283611;28;20206;-70
2023/05/06 06:47:26;;;;;;;21.33;14.32;;;;;16.70;96381.00;;;;8286664;28;20798;-70
2023/05/06 06:51:34;;;;;;;19.20;12.68;;;;;17.00;96377.00;;;;8284329;28;20896;-69
2023/05/06 06:55:37;;;;;;;17.27;12.00;;;;;17.50;96383.00;;;;8285383;28;20226;-69
2023/05/06 06:59:41;;;;;;;16.73;12.00;;;;;17.60;96380.00;;;;8266750;28;20592;-69
2023/05/06 07:03:44;;;;;;;14.52;9.90;;;;;17.70;96388.00;;;;8283743;28;20225;-68
2023/05/06 07:07:48;;;;;;;15.82;10.70;;;;;17.70;96381.00;;;;8283936;28;20209;-69
2023/05/06 07:12:00;;;;;;;11.48;8.65;;;;;17.50;96396.00;;;;8283795;28;20195;-69
2023/05/06 07:16:04;;;;;;;9.32;7.70;;;;;17.40;96392.00;;;;8285575;28;20201;-69
2023/05/06 07:20:08;;;;;;;13.63;8.48;;;;;17.40;96402.00;;;;8286537;28;20230;-69
2023/05/06 07:24:13;;;;;;;12.98;7.60;;;;;17.40;96408.00;;;;8283349;28;20194;-69
2023/05/06 07:28:17;;;;;;;10.75;7.45;;;;;17.50;96413.00;;;;8277779;28;20198;-69
2023/05/06 07:32:20;;;;;;;16.88;8.65;;;;;17.60;96409.00;;;;8273926;28;20201;-69
2023/05/06 07:36:24;;;;;;;14.50;7.75;;;;;17.80;96417.00;;;;8260570;28;20234;-69
2023/05/06 07:40:32;;;;;;;11.93;7.28;;;;;17.90;96415.00;;;;8270476;28;20296;-69
2023/05/06 07:44:37;;;;;;;11.68;7.57;;;;;18.20;96419.00;;;;8279325;28;20222;-69
2023/05/06 07:48:40;;;;;;;13.10;8.07;;;;;18.40;96425.00;;;;8285114;28;20202;-69
2023/05/06 07:52:45;;;;;;;9.25;7.30;;;;;18.70;96425.00;;;;8284201;28;20206;-69
2023/05/06 07:56:53;;;;;;;12.07;7.18;;;;;19.00;96425.00;;;;8285070;28;20255;-70
2023/05/06 08:01:02;;;;;;;12.45;7.20;;;;;19.30;96427.00;;;;8283355;28;20683;-69
2023/05/06 08:05:07;;;;;;;8.73;7.20;;;;;19.70;96436.00;;;;8257457;28;20232;-70
2023/05/06 08:09:12;;;;;;;9.30;6.97;;;;;19.80;96432.00;;;;8290883;28;20248;-69
2023/05/06 08:13:29;;;;;;;12.10;7.90;;;;;19.80;96447.00;;;;8276809;28;20194;-70
2023/05/06 08:17:36;;;;;;;13.38;7.35;;;;;20.00;96451.00;;;;8292350;28;20252;-69
2023/05/06 08:21:40;;;;;;;8.07;6.32;;;;;20.50;96452.00;;;;8292638;28;20825;-69
2023/05/06 08:25:43;;;;;;;8.45;6.60;;;;;20.60;96456.00;;;;8288923;28;20225;-69
2023/05/06 08:29:58;;;;;;;12.85;6.95;;;;;21.10;96456.00;;;;8292447;28;20202;-69
2023/05/06 08:34:04;;;;;;;8.00;6.20;;;;;21.50;96459.00;;;;8292719;28;20229;-69
2023/05/06 08:38:07;;;;;;;7.13;5.35;;;;;22.00;96460.00;;;;8289936;28;20658;-70
2023/05/06 08:42:11;;;;;;;5.65;5.15;;;;;22.30;96459.00;;;;8291703;28;20304;-69
2023/05/06 08:46:18;;;;;;;5.93;5.35;;;;;21.80;96461.00;;;;8291726;28;20202;-69
2023/05/06 08:50:24;;;;;;;6.38;4.70;;;;;22.00;96460.00;;;;8285825;28;20659;-69
2023/05/06 08:54:34;;;;;;;6.15;4.82;;;;;23.40;96455.00;;;;8288787;28;20210;-69
2023/05/06 08:58:38;;;;;;;6.93;4.28;;;;;24.20;96460.00;;;;8289747;28;20206;-70
2023/05/06 09:02:45;;;;;;;4.30;3.85;;;;;24.00;96458.00;;;;8290304;28;20233;-70
2023/05/06 09:06:51;;;;;;;4.25;3.60;;;;;23.30;96467.00;;;;8286999;28;20286;-69
2023/05/06 09:10:54;;;;;;;2.95;2.75;;;;;23.80;96464.00;;;;8291394;28;20198;-69
2023/05/06 09:15:00;;;;;;;2.97;2.70;;;;;24.60;96464.00;;;;8287917;28;20556;-69
2023/05/06 09:19:05;;;;;;;4.90;2.53;;;;;24.30;96464.00;;;;8291155;28;20210;-69
2023/05/06 09:23:09;;;;;;;3.83;2.13;;;;;23.80;96467.00;;;;8291410;28;20264;-69
2023/05/06 09:27:12;;;;;;;5.38;2.40;;;;;24.30;96457.00;;;;8289622;28;20203;-69
2023/05/06 09:31:17;;;;;;;2.78;1.98;;;;;24.80;96457.00;;;;8290057;28;20194;-69
2023/05/06 09:35:27;;;;;;;2.30;2.10;;;;;25.10;96456.00;;;;8283786;28;20595;-69
2023/05/06 09:39:30;;;;;;;5.50;1.90;;;;;25.60;96453.00;;;;8286781;28;20206;-69
2023/05/06 09:43:40;;;;;;;2.33;2.22;;;;;26.10;96453.00;;;;8271999;28;20225;-70
2023/05/06 09:47:44;;;;;;;2.88;1.90;;;;;25.80;96451.00;;;;8285420;28;20256;-70
2023/05/06 09:51:50;;;;;;;2.17;1.80;;;;;26.00;96451.00;;;;8289073;28;20198;-69
2023/05/06 09:55:57;;;;;;;1.80;1.70;;;;;26.00;96444.00;;;;8289410;28;20230;-70
2023/05/06 10:00:05;;;;;;;2.30;1.77;;;;;26.20;96437.00;;;;8288519;28;20268;-70
2023/05/06 10:04:11;;;;;;;2.17;2.08;;;;;26.20;96446.00;;;;8283970;28;20229;-70
2023/05/06 10:08:18;;;;;;;2.13;2.03;;;;;26.40;96434.00;;;;8271345;28;20233;-71
2023/05/06 10:12:22;;;;;;;2.75;1.90;;;;;27.40;96438.00;;;;8289673;28;20198;-69
2023/05/06 10:16:26;;;;;;;4.82;1.95;;;;;27.60;96432.00;;;;8287640;28;20232;-69
2023/05/06 10:20:34;;;;;;;1.65;1.55;;;;;26.50;96430.00;;;;8288871;28;20237;-69
2023/05/06 10:24:49;;;;;;;4.03;1.60;;;;;26.30;96416.00;;;;8286050;28;20264;-69
2023/05/06 10:28:53;;;;;;;2.20;1.52;;;;;26.40;96423.00;;;;8288020;28;20202;-70
2023/05/06 10:33:04;;;;;;;2.97;1.52;;;;;26.50;96426.00;;;;8287449;28;20194;-68
2023/05/06 10:37:09;;;;;;;1.63;1.42;;;;;26.20;96422.00;;;;8286170;28;20198;-71
2023/05/06 10:41:15;;;;;;;1.92;1.55;;;;;25.80;96416.00;;;;8284399;28;20288;-68
2023/05/06 10:45:19;;;;;;;1.58;1.48;;;;;26.00;96412.00;;;;8270332;28;20194;-68
2023/05/06 10:49:22;;;;;;;3.38;1.60;;;;;26.30;96413.00;;;;8288323;28;20639;-68
2023/05/06 10:53:58;;;;;;;1.70;1.60;;;;;25.30;96406.00;;;;8288050;28;20318;-68
2023/05/06 10:58:12;;;;;;;2.75;1.40;;;;;25.60;96410.00;;;;8286176;28;20198;-68
2023/05/06 11:02:21;;;;;;;2.10;1.63;;;;;26.10;96410.00;;;;8280116;28;20729;-69
2023/05/06 11:06:40;;;;;;;2.35;1.60;;;;;26.70;96405.00;;;;8278900;28;20198;-68
2023/05/06 11:10:44;;;;;;;2.05;1.63;;;;;26.50;96401.00;;;;8279935;28;20796;-68
2023/05/06 11:14:48;;;;;;;3.10;1.30;;;;;26.30;96405.00;;;;8285049;28;20202;-68
2023/05/06 11:18:52;;;;;;;1.55;1.42;;;;;26.80;96406.00;;;;8286903;28;20229;-68
2023/05/06 11:22:55;;;;;;;1.88;1.73;;;;;27.40;96410.00;;;;8286353;28;20218;-68
2023/05/06 11:27:03;;;;;;;1.73;1.50;;;;;27.90;96409.00;;;;8282626;28;20202;-71
2023/05/06 11:31:08;;;;;;;4.07;1.60;;;;;28.00;96412.00;;;;8270296;28;20311;-69
2023/05/06 11:35:15;;;;;;;6.80;1.60;;;;;28.40;96408.00;;;;8273424;28;20209;-69
2023/05/06 11:39:19;;;;;;;1.30;1.30;;;;;29.10;96415.00;;;;8274207;28;20198;-72
2023/05/06 11:43:25;;;;;;;1.48;1.33;;;;;28.90;96407.00;;;;8279631;28;20237;-71
2023/05/06 11:47:29;;;;;;;1.58;1.48;;;;;28.90;96417.00;;;;8280913;28;20206;-69
2023/05/06 11:51:33;;;;;;;2.80;1.70;;;;;28.20;96414.00;;;;8263754;28;20209;-69
2023/05/06 11:55:36;;;;;;;1.45;1.40;;;;;27.60;96415.00;;;;8285106;28;20244;-68
2023/05/06 11:59:45;;;;;;;1.42;1.30;;;;;27.70;96411.00;;;;8285835;28;20206;-70
2023/05/06 12:03:50;;;;;;;4.25;1.88;;;;;28.30;96411.00;;;;8285639;28;20308;-68
2023/05/06 12:07:53;;;;;;;1.60;1.40;;;;;28.80;96413.00;;;;8280802;28;20255;-70
2023/05/06 12:11:57;;;;;;;2.05;1.40;;;;;28.80;96403.00;;;;8282814;28;20197;-67
2023/05/06 12:16:04;;;;;;;2.15;1.50;;;;;28.40;96408.00;;;;8286095;28;20201;-69
2023/05/06 12:20:15;;;;;;;3.40;1.45;;;;;28.10;96406.00;;;;8286504;28;20298;-68
2023/05/06 12:24:27;;;;;;;1.80;1.45;;;;;27.80;96406.00;;;;8285446;28;20264;-67
2023/05/06 12:28:36;;;;;;;1.42;1.35;;;;;27.30;96404.00;;;;8286813;28;20203;-70
2023/05/06 12:32:57;;;;;;;2.60;1.30;;;;;27.10;96393.00;;;;8285657;28;20808;-69
2023/05/06 12:37:03;;;;;;;1.70;1.40;;;;;26.90;96395.00;;;;8284506;28;20202;-69
2023/05/06 12:41:08;;;;;;;1.70;1.60;;;;;26.30;96402.00;;;;8285160;28;20194;-68
2023/05/06 12:45:15;;;;;;;2.00;1.50;;;;;26.00;96404.00;;;;8286462;28;20205;-69
2023/05/06 12:49:20;;;;;;;1.65;1.55;;;;;25.70;96403.00;;;;8285692;28;20202;-68
2023/05/06 12:53:35;;;;;;;1.77;1.67;;;;;24.90;96403.00;;;;8290561;28;20190;-68
2023/05/06 12:57:38;;;;;;;1.70;1.60;;;;;24.40;96399.00;;;;8280567;28;20592;-68
2023/05/06 13:01:41;;;;;;;2.05;1.90;;;;;24.50;96406.00;;;;8290300;28;20230;-68
2023/05/06 13:05:45;;;;;;;1.70;1.60;;;;;24.40;96390.00;;;;8290718;28;20198;-68
2023/05/06 13:09:49;;;;;;;1.40;1.40;;;;;24.60;96401.00;;;;8286327;28;20651;-65
2023/05/06 13:13:55;;;;;;;1.73;1.58;;;;;24.90;96388.00;;;;8289367;28;20202;-65
2023/05/06 13:17:59;;;;;;;1.92;1.80;;;;;24.90;96391.00;;;;8288835;28;20673;-66
2023/05/06 13:22:04;;;;;;;1.40;1.40;;;;;25.30;96383.00;;;;8289704;28;20701;-66
2023/05/06 13:26:10;;;;;;;1.35;1.33;;;;;26.00;96383.00;;;;8283255;28;20205;-66
2023/05/06 13:30:13;;;;;;;1.55;1.45;;;;;26.30;96386.00;;;;8290544;28;20575;-68
2023/05/06 13:34:20;;;;;;;1.45;1.35;;;;;27.00;96389.00;;;;8290994;28;20230;-67
2023/05/06 13:38:25;;;;;;;2.00;1.35;;;;;27.90;96382.00;;;;8289492;28;20244;-66
2023/05/06 13:42:32;;;;;;;1.40;1.30;;;;;28.20;96378.00;;;;8282217;28;20226;-67
2023/05/06 13:46:35;;;;;;;1.40;1.33;;;;;28.70;96382.00;;;;8282683;28;20233;-67
2023/05/06 13:50:41;;;;;;;1.40;1.30;;;;;28.80;96373.00;;;;8289398;28;20206;-67
2023/05/06 13:54:45;;;;;;;1.60;1.50;;;;;29.10;96368.00;;;;8290359;28;20256;-68
2023/05/06 13:58:49;;;;;;;1.48;1.38;;;;;29.20;96371.00;;;;8286904;28;20190;-68
2023/05/06 14:02:55;;;;;;;2.88;1.58;;;;;28.70;96368.00;;;;8288655;28;20237;-67
2023/05/06 14:06:58;;;;;;;3.58;1.50;;;;;27.70;96369.00;;;;8287624;28;20649;-69
2023/05/06 14:11:04;;;;;;;1.77;1.35;;;;;27.50;96360.00;;;;8288906;28;20285;-68
2023/05/06 14:15:10;;;;;;;1.85;1.40;;;;;28.10;96351.00;;;;8289591;28;20540;-67
2023/05/06 14:19:15;;;;;;;2.72;1.15;;;;;28.70;96349.00;;;;8270797;28;20198;-68
2023/05/06 14:23:23;;;;;;;2.03;1.30;;;;;28.50;96352.00;;;;8287509;28;20226;-68
2023/05/06 14:27:29;;;;;;;2.40;1.30;;;;;28.70;96348.00;;;;8287866;28;20631;-67
2023/05/06 14:31:34;;;;;;;1.40;1.30;;;;;28.80;96341.00;;;;8287525;28;20261;-67
2023/05/06 14:35:40;;;;;;;1.35;1.25;;;;;29.10;96343.00;;;;8287119;28;20205;-68
2023/05/06 14:39:43;;;;;;;1.50;1.40;;;;;29.10;96344.00;;;;8272439;28;20203;-68
2023/05/06 14:43:46;;;;;;;1.55;1.45;;;;;28.80;96338.00;;;;8284131;28;20790;-68
2023/05/06 14:47:51;;;;;;;1.35;1.25;;;;;28.50;96334.00;;;;8283604;28;20620;-67
2023/05/06 14:52:01;;;;;;;2.88;1.40;;;;;29.20;96336.00;;;;8287122;28;20754;-68
2023/05/06 14:56:10;;;;;;;1.30;1.30;;;;;29.10;96334.00;;;;8284837;28;20206;-68
2023/05/06 15:00:14;;;;;;;1.55;1.42;;;;;28.40;96332.00;;;;8285300;28;20202;-67
2023/05/06 15:04:22;;;;;;;1.40;1.33;;;;;27.80;96330.00;;;;8287361;28;20299;-69
2023/05/06 15:08:27;;;;;;;2.67;1.60;;;;;27.80;96332.00;;;;8286618;28;20190;-68
2023/05/06 15:12:30;;;;;;;1.73;1.63;;;;;27.80;96332.00;;;;8285389;28;20841;-68
2023/05/06 15:16:34;;;;;;;1.73;1.60;;;;;28.30;96333.00;;;;8287258;28;20232;-67
2023/05/06 15:20:38;;;;;;;2.55;1.35;;;;;28.50;96328.00;;;;8286100;28;20575;-69
2023/05/06 15:24:43;;;;;;;1.25;1.25;;;;;28.30;96327.00;;;;8281911;28;20226;-68
2023/05/06 15:28:47;;;;;;;1.20;1.20;;;;;28.50;96333.00;;;;8286649;28;20195;-68
2023/05/06 15:32:52;;;;;;;2.70;1.40;;;;;28.60;96334.00;;;;8285589;28;20277;-68
2023/05/06 15:37:00;;;;;;;3.28;1.55;;;;;28.70;96329.00;;;;8285411;28;20241;-67
2023/05/06 15:41:08;;;;;;;1.73;1.50;;;;;28.50;96333.00;;;;8285639;28;20245;-66
2023/05/06 15:45:12;;;;;;;2.08;1.80;;;;;28.20;96330.00;;;;8285166;28;20280;-69
2023/05/06 15:49:20;;;;;;;1.50;1.40;;;;;28.30;96323.00;;;;8283945;28;20639;-68
2023/05/06 15:53:27;;;;;;;1.30;1.20;;;;;28.50;96330.00;;;;8278310;28;20209;-68
2023/05/06 15:57:31;;;;;;;1.27;1.17;;;;;28.40;96331.00;;;;8284648;28;20198;-67
2023/05/06 16:01:36;;;;;;;1.80;1.67;;;;;28.30;96327.00;;;;8285128;28;20237;-67
2023/05/06 16:05:42;;;;;;;2.90;1.58;;;;;27.70;96332.00;;;;8265505;28;20287;-69
2023/05/06 16:09:47;;;;;;;2.33;1.50;;;;;27.10;96322.00;;;;8286796;28;20725;-69
2023/05/06 16:13:50;;;;;;;2.03;1.40;;;;;27.00;96330.00;;;;8284836;28;20244;-69
2023/05/06 16:17:53;;;;;;;1.60;1.50;;;;;26.70;96317.00;;;;8285385;28;20213;-68
2023/05/06 16:21:56;;;;;;;3.20;1.38;;;;;26.70;96323.00;;;;8286263;28;20232;-69
2023/05/06 16:26:03;;;;;;;1.50;1.40;;;;;27.00;96321.00;;;;8291605;28;20222;-69
2023/05/06 16:30:09;;;;;;;2.80;1.50;;;;;26.60;96328.00;;;;8290660;28;20197;-68
2023/05/06 16:34:17;;;;;;;1.70;1.60;;;;;26.40;96329.00;;;;8291201;28;20198;-70
2023/05/06 16:38:20;;;;;;;3.47;1.67;;;;;25.90;96328.00;;;;8287640;28;20288;-69
2023/05/06 16:42:25;;;;;;;1.88;1.63;;;;;25.80;96325.00;;;;8287154;28;20209;-67
2023/05/06 16:46:28;;;;;;;2.00;1.60;;;;;25.50;96326.00;;;;8271837;28;20202;-70
2023/05/06 16:50:31;;;;;;;2.00;1.70;;;;;24.90;96320.00;;;;8284002;28;20632;-67
2023/05/06 16:54:37;;;;;;;1.55;1.45;;;;;24.50;96318.00;;;;8291314;28;20206;-67
2023/05/06 16:58:45;;;;;;;4.80;1.77;;;;;24.50;96316.00;;;;8274260;28;20198;-67
2023/05/06 17:02:50;;;;;;;1.70;1.60;;;;;25.10;96319.00;;;;8289622;28;20229;-68
2023/05/06 17:06:56;;;;;;;4.40;1.58;;;;;25.00;96314.00;;;;8273979;28;20237;-70
2023/05/06 17:11:05;;;;;;;1.52;1.42;;;;;25.00;96320.00;;;;8290636;28;20193;-72
2023/05/06 17:15:11;;;;;;;2.10;1.58;;;;;25.60;96319.00;;;;8289545;28;20652;-67
2023/05/06 17:19:15;;;;;;;5.95;1.55;;;;;25.90;96321.00;;;;8289929;28;20206;-70
2023/05/06 17:23:21;;;;;;;1.48;1.38;;;;;26.20;96314.00;;;;8289745;28;20225;-67
2023/05/06 17:27:25;;;;;;;3.60;1.80;;;;;26.40;96314.00;;;;8284972;28;20203;-67
2023/05/06 17:31:36;;;;;;;1.70;1.60;;;;;26.10;96315.00;;;;8284142;28;20640;-67
2023/05/06 17:35:45;;;;;;;1.73;1.40;;;;;25.90;96319.00;;;;8289720;28;20198;-68
2023/05/06 17:39:48;;;;;;;1.77;1.67;;;;;25.80;96317.00;;;;8288706;28;20202;-69
2023/05/06 17:43:54;;;;;;;2.40;1.50;;;;;25.50;96320.00;;;;8289765;28;20217;-67
2023/05/06 17:48:01;;;;;;;2.22;1.67;;;;;25.00;96318.00;;;;8289105;28;20248;-67
2023/05/06 17:52:06;;;;;;;3.20;2.20;;;;;24.50;96316.00;;;;8288592;28;20583;-67
2023/05/06 17:56:09;;;;;;;4.03;2.50;;;;;23.90;96322.00;;;;8289510;28;20783;-67
2023/05/06 18:00:18;;;;;;;3.97;2.25;;;;;23.30;96321.00;;;;8286241;28;20714;-67
2023/05/06 18:04:22;;;;;;;3.47;1.98;;;;;22.70;96327.00;;;;8281388;28;20242;-70
2023/05/06 18:08:26;;;;;;;2.53;2.00;;;;;22.00;96328.00;;;;8288933;28;20206;-67
2023/05/06 18:12:33;;;;;;;2.15;1.98;;;;;21.40;96315.00;;;;8289274;28;20576;-70
2023/05/06 18:16:36;;;;;;;2.63;1.92;;;;;20.90;96318.00;;;;8288548;28;20209;-67
2023/05/06 18:20:41;;;;;;;4.82;2.33;;;;;20.40;96318.00;;;;8271245;28;20248;-68
2023/05/06 18:24:46;;;;;;;4.95;2.10;;;;;19.90;96316.00;;;;8281617;28;20706;-67
2023/05/06 18:28:49;;;;;;;4.50;2.30;;;;;19.50;96317.00;;;;8282931;28;20267;-68
2023/05/06 18:32:57;;;;;;;2.80;1.90;;;;;19.10;96321.00;;;;8267373;28;20686;-66
2023/05/06 18:37:04;;;;;;;5.78;2.08;;;;;18.60;96321.00;;;;8284214;28;20264;-67
2023/05/06 18:41:08;;;;;;;5.05;2.95;;;;;18.10;96320.00;;;;8287560;28;20194;-67
2023/05/06 18:45:14;;;;;;;3.40;2.83;;;;;17.80;96319.00;;;;8285313;28;20284;-67
2023/05/06 18:49:19;;;;;;;5.28;3.22;;;;;17.40;96333.00;;;;8286478;28;20202;-68
2023/05/06 18:53:28;;;;;;;2.70;2.50;;;;;17.10;96333.00;;;;8283984;28;20230;-67
2023/05/06 18:57:31;;;;;;;20.63;3.13;;;;;16.80;96338.00;;;;8279524;28;20252;-66
2023/05/06 19:01:37;;;;;;;4.05;2.20;;;;;16.50;96338.00;;;;8282971;28;20272;-66
2023/05/06 19:05:40;;;;;;;4.22;2.17;;;;;16.30;96335.00;;;;8286634;28;20226;-66
2023/05/06 19:09:45;;;;;;;2.70;2.50;;;;;16.20;96329.00;;;;8286879;28;20198;-67
2023/05/06 19:13:49;;;;;;;9.05;2.47;;;;;16.20;96343.00;;;;8285762;28;20198;-66
2023/05/06 19:17:55;;;;;;;3.17;2.30;;;;;16.00;96347.00;;;;8285969;28;20202;-66
2023/05/06 19:22:00;;;;;;;4.57;2.20;;;;;15.90;96348.00;;;;8286569;28;20251;-66
2023/05/06 19:26:08;;;;;;;4.45;2.28;;;;;15.70;96339.00;;;;8285880;28;20284;-65
2023/05/06 19:30:12;;;;;;;3.75;2.20;;;;;15.50;96342.00;;;;8285922;28;20251;-65
2023/05/06 19:34:15;;;;;;;2.83;2.47;;;;;15.30;96347.00;;;;8280817;28;20537;-67
2023/05/06 19:38:20;;;;;;;7.85;2.60;;;;;15.10;96347.00;;;;8285217;28;20198;-67
2023/05/06 19:42:25;;;;;;;3.63;2.30;;;;;14.90;96345.00;;;;8278241;28;20201;-66
2023/05/06 19:46:30;;;;;;;6.95;3.10;;;;;14.70;96350.00;;;;8285102;28;20229;-66
2023/05/06 19:50:34;;;;;;;3.92;2.90;;;;;14.60;96345.00;;;;8285844;28;20771;-67
2023/05/06 19:54:37;;;;;;;7.05;2.97;;;;;14.50;96354.00;;;;8282829;28;20206;-66
2023/05/06 19:58:41;;;;;;;4.18;3.17;;;;;14.50;96354.00;;;;8290896;28;20205;-66
2023/05/06 20:02:45;;;;;;;5.95;3.17;;;;;14.40;96353.00;;;;8290024;28;20229;-66
2023/05/06 20:06:54;;;;;;;6.53;3.03;;;;;14.30;96353.00;;;;8290994;28;20222;-67
2023/05/06 20:10:57;;;;;;;4.30;2.78;;;;;14.20;96341.00;;;;8291672;28;20728;-66
2023/05/06 20:15:02;;;;;;;6.82;3.05;;;;;14.10;96339.00;;;;8292387;28;20201;-68
2023/05/06 20:19:07;;;;;;;2.88;2.67;;;;;14.00;96346.00;;;;8290629;28;20218;-66